sensor_id;sensor_type;location;lat;lon;timestamp;pressure;altitude;pressure_sealevel;temperature;humidity
47374;BME280;33123;50.118;10.272;2022-09-17T00:00:40;97058.63;;;9.94;76.04
47374;BME280;33123;50.118;10.272;2022-09-17T00:03:07;97064.41;;;9.96;75.98
47374;BME280;33123;50.118;10.272;2022-09-17T00:05:34;97069.16;;;9.94;76.06
47374;BME280;33123;50.118;10.272;2022-09-17T00:08:03;97068.09;;;9.90;76.15
47374;BME280;33123;50.118;10.272;2022-09-17T00:10:30;97069.38;;;9.88;76.00
47374;BME280;33123;50.118;10.272;2022-09-17T00:12:57;97067.00;;;9.86;76.01
47374;BME280;33123;50.118;10.272;2022-09-17T00:15:24;97071.19;;;9.82;76.20
47374;BME280;33123;50.118;10.272;2022-09-17T00:17:53;97075.94;;;9.85;76.03
47374;BME280;33123;50.118;10.272;2022-09-17T00:20:19;97071.19;;;9.82;76.06
47374;BME280;33123;50.118;10.272;2022-09-17T00:22:46;97069.59;;;9.81;76.38
47374;BME280;33123;50.118;10.272;2022-09-17T00:25:14;97081.97;;;9.81;76.48
47374;BME280;33123;50.118;10.272;2022-09-17T00:27:41;97081.19;;;9.80;76.37
47374;BME280;33123;50.118;10.272;2022-09-17T00:30:09;97089.09;;;9.80;76.34
47374;BME280;33123;50.118;10.272;2022-09-17T00:32:36;97080.41;;;9.79;76.57
47374;BME280;33123;50.118;10.272;2022-09-17T00:35:03;97076.97;;;9.79;77.03
47374;BME280;33123;50.118;10.272;2022-09-17T00:37:30;97080.09;;;9.76;77.47
47374;BME280;33123;50.118;10.272;2022-09-17T00:39:56;97077.44;;;9.71;78.09
47374;BME280;33123;50.118;10.272;2022-09-17T00:42:24;97082.25;;;9.79;77.37
47374;BME280;33123;50.118;10.272;2022-09-17T00:44:52;97085.94;;;9.88;77.25
47374;BME280;33123;50.118;10.272;2022-09-17T00:47:23;97091.50;;;9.92;77.18
47374;BME280;33123;50.118;10.272;2022-09-17T00:49:53;97067.53;;;9.83;76.64
47374;BME280;33123;50.118;10.272;2022-09-17T00:52:25;97085.22;;;9.98;76.95
47374;BME280;33123;50.118;10.272;2022-09-17T00:54:57;97085.47;;;9.91;76.95
47374;BME280;33123;50.118;10.272;2022-09-17T00:57:27;97085.75;;;9.95;76.80
47374;BME280;33123;50.118;10.272;2022-09-17T00:59:54;97095.47;;;9.89;77.13
47374;BME280;33123;50.118;10.272;2022-09-17T01:02:21;97085.97;;;9.93;76.77
47374;BME280;33123;50.118;10.272;2022-09-17T01:04:49;97088.91;;;9.97;77.14
47374;BME280;33123;50.118;10.272;2022-09-17T01:07:25;97081.03;;;10.02;76.98
47374;BME280;33123;50.118;10.272;2022-09-17T01:10:01;97071.78;;;9.89;76.47
47374;BME280;33123;50.118;10.272;2022-09-17T01:12:48;97093.94;;;10.03;76.44
47374;BME280;33123;50.118;10.272;2022-09-17T01:15:26;97087.06;;;9.97;76.30
47374;BME280;33123;50.118;10.272;2022-09-17T01:18:14;97082.34;;;9.99;76.33
47374;BME280;33123;50.118;10.272;2022-09-17T01:24:21;97067.28;;;9.90;77.07
47374;BME280;33123;50.118;10.272;2022-09-17T01:29:58;97070.44;;;9.87;76.81
47374;BME280;33123;50.118;10.272;2022-09-17T01:32:30;96986.75;;;9.31;76.96
47374;BME280;33123;50.118;10.272;2022-09-17T01:35:03;97066.50;;;9.89;76.64
47374;BME280;33123;50.118;10.272;2022-09-17T01:37:33;97078.06;;;9.88;77.21
47374;BME280;33123;50.118;10.272;2022-09-17T01:40:06;97068.09;;;9.95;77.30
47374;BME280;33123;50.118;10.272;2022-09-17T01:42:36;97074.97;;;10.01;76.80
47374;BME280;33123;50.118;10.272;2022-09-17T01:45:10;97077.63;;;10.07;76.50
47374;BME280;33123;50.118;10.272;2022-09-17T01:47:44;97078.72;;;10.11;76.01
47374;BME280;33123;50.118;10.272;2022-09-17T01:50:13;97081.56;;;10.09;75.92
47374;BME280;33123;50.118;10.272;2022-09-17T01:52:43;97079.22;;;10.08;76.04
47374;BME280;33123;50.118;10.272;2022-09-17T01:55:14;97084.47;;;10.08;76.34
47374;BME280;33123;50.118;10.272;2022-09-17T01:57:45;97084.97;;;10.04;76.01
47374;BME280;33123;50.118;10.272;2022-09-17T02:00:15;97086.31;;;10.07;75.95
47374;BME280;33123;50.118;10.272;2022-09-17T02:02:47;97045.94;;;9.86;75.92
47374;BME280;33123;50.118;10.272;2022-09-17T02:05:18;97082.59;;;10.03;76.13
47374;BME280;33123;50.118;10.272;2022-09-17T02:07:49;97083.41;;;10.03;76.39
47374;BME280;33123;50.118;10.272;2022-09-17T02:10:19;97081.81;;;10.02;76.54
47374;BME280;33123;50.118;10.272;2022-09-17T02:12:51;97079.72;;;10.04;76.52
47374;BME280;33123;50.118;10.272;2022-09-17T02:15:23;97089.19;;;10.00;76.72
47374;BME280;33123;50.118;10.272;2022-09-17T02:17:55;97086.59;;;10.05;76.52
47374;BME280;33123;50.118;10.272;2022-09-17T02:20:29;97078.69;;;10.05;77.00
47374;BME280;33123;50.118;10.272;2022-09-17T02:23:03;97082.91;;;10.12;76.95
47374;BME280;33123;50.118;10.272;2022-09-17T02:25:35;97084.53;;;10.18;76.73
47374;BME280;33123;50.118;10.272;2022-09-17T02:28:07;97079.50;;;10.21;76.39
47374;BME280;33123;50.118;10.272;2022-09-17T02:30:38;97081.91;;;10.23;76.45
47374;BME280;33123;50.118;10.272;2022-09-17T02:33:08;97081.41;;;10.26;76.59
47374;BME280;33123;50.118;10.272;2022-09-17T02:35:37;97085.63;;;10.32;76.51
47374;BME280;33123;50.118;10.272;2022-09-17T02:38:04;97084.59;;;10.28;76.92
47374;BME280;33123;50.118;10.272;2022-09-17T02:40:35;97072.72;;;10.25;76.17
47374;BME280;33123;50.118;10.272;2022-09-17T02:43:09;97085.13;;;10.30;76.67
47374;BME280;33123;50.118;10.272;2022-09-17T02:45:45;97088.31;;;10.42;76.36
47374;BME280;33123;50.118;10.272;2022-09-17T02:48:42;97094.09;;;10.34;76.99
47374;BME280;33123;50.118;10.272;2022-09-17T02:51:22;97092.28;;;10.50;76.74
47374;BME280;33123;50.118;10.272;2022-09-17T02:53:58;97073.06;;;10.44;76.68
47374;BME280;33123;50.118;10.272;2022-09-17T02:59:52;97090.22;;;10.67;76.29
47374;BME280;33123;50.118;10.272;2022-09-17T03:02:24;97089.94;;;10.69;76.44
47374;BME280;33123;50.118;10.272;2022-09-17T03:04:55;97092.59;;;10.74;76.80
47374;BME280;33123;50.118;10.272;2022-09-17T03:07:22;97089.16;;;10.68;76.84
47374;BME280;33123;50.118;10.272;2022-09-17T03:09:49;97085.75;;;10.73;76.84
47374;BME280;33123;50.118;10.272;2022-09-17T03:12:16;97084.16;;;10.72;76.56
47374;BME280;33123;50.118;10.272;2022-09-17T03:14:43;97080.50;;;10.78;76.85
47374;BME280;33123;50.118;10.272;2022-09-17T03:17:10;97086.78;;;10.82;76.72
47374;BME280;33123;50.118;10.272;2022-09-17T03:19:37;97080.47;;;10.68;76.27
47374;BME280;33123;50.118;10.272;2022-09-17T03:22:05;97081.53;;;10.82;76.44
47374;BME280;33123;50.118;10.272;2022-09-17T03:24:31;97080.22;;;10.84;76.09
47374;BME280;33123;50.118;10.272;2022-09-17T03:26:58;97092.06;;;10.87;76.43
47374;BME280;33123;50.118;10.272;2022-09-17T03:29:24;97086.28;;;10.90;76.29
47374;BME280;33123;50.118;10.272;2022-09-17T03:31:51;97089.44;;;10.87;76.90
47374;BME280;33123;50.118;10.272;2022-09-17T03:34:17;97093.66;;;10.93;76.62
47374;BME280;33123;50.118;10.272;2022-09-17T03:36:45;97092.88;;;10.93;76.80
47374;BME280;33123;50.118;10.272;2022-09-17T03:39:13;97095.50;;;10.93;77.24
47374;BME280;33123;50.118;10.272;2022-09-17T03:41:39;97097.34;;;10.92;77.27
47374;BME280;33123;50.118;10.272;2022-09-17T03:44:06;97097.34;;;10.92;76.88
47374;BME280;33123;50.118;10.272;2022-09-17T03:46:34;97095.50;;;10.93;77.22
47374;BME280;33123;50.118;10.272;2022-09-17T03:49:01;97061.47;;;10.71;76.83
47374;BME280;33123;50.118;10.272;2022-09-17T03:51:27;97095.25;;;10.89;77.07
47374;BME280;33123;50.118;10.272;2022-09-17T03:53:54;97096.03;;;10.84;76.92
47374;BME280;33123;50.118;10.272;2022-09-17T03:56:22;97099.75;;;10.89;77.27
47374;BME280;33123;50.118;10.272;2022-09-17T03:58:48;97089.44;;;10.87;77.28
47374;BME280;33123;50.118;10.272;2022-09-17T04:01:15;97090.50;;;10.86;77.21
47374;BME280;33123;50.118;10.272;2022-09-17T04:03:42;97085.78;;;10.83;76.37
47374;BME280;33123;50.118;10.272;2022-09-17T04:06:09;97088.41;;;10.78;76.20
47374;BME280;33123;50.118;10.272;2022-09-17T04:08:36;97084.16;;;10.72;76.65
47374;BME280;33123;50.118;10.272;2022-09-17T04:11:02;97086.00;;;10.71;76.92
47374;BME280;33123;50.118;10.272;2022-09-17T04:13:30;97088.09;;;10.69;77.46
47374;BME280;33123;50.118;10.272;2022-09-17T04:15:57;97092.06;;;10.67;77.78
47374;BME280;33123;50.118;10.272;2022-09-17T04:18:23;97085.72;;;10.63;78.17
47374;BME280;33123;50.118;10.272;2022-09-17T04:20:50;97081.97;;;10.43;78.49
47374;BME280;33123;50.118;10.272;2022-09-17T04:23:17;97079.38;;;10.58;78.83
47374;BME280;33123;50.118;10.272;2022-09-17T04:25:44;97081.75;;;10.50;78.45
47374;BME280;33123;50.118;10.272;2022-09-17T04:28:11;97082.53;;;10.50;78.20
47374;BME280;33123;50.118;10.272;2022-09-17T04:30:39;97087.56;;;10.57;78.38
47374;BME280;33123;50.118;10.272;2022-09-17T04:33:07;97092.03;;;10.51;79.16
47374;BME280;33123;50.118;10.272;2022-09-17T04:35:34;97093.09;;;10.50;79.09
47374;BME280;33123;50.118;10.272;2022-09-17T04:38:00;97087.03;;;10.50;79.38
47374;BME280;33123;50.118;10.272;2022-09-17T04:40:27;97094.94;;;10.55;79.18
47374;BME280;33123;50.118;10.272;2022-09-17T04:42:56;97052.44;;;10.26;79.54
47374;BME280;33123;50.118;10.272;2022-09-17T04:47:52;97097.31;;;10.56;79.70
47374;BME280;33123;50.118;10.272;2022-09-17T04:50:20;97100.22;;;10.55;79.87
47374;BME280;33123;50.118;10.272;2022-09-17T04:52:47;97105.19;;;10.51;80.06
47374;BME280;33123;50.118;10.272;2022-09-17T04:55:14;97098.38;;;10.55;79.59
47374;BME280;33123;50.118;10.272;2022-09-17T04:57:44;97109.16;;;10.54;80.24
47374;BME280;33123;50.118;10.272;2022-09-17T05:00:12;97110.19;;;10.53;80.04
47374;BME280;33123;50.118;10.272;2022-09-17T05:02:39;97105.19;;;10.51;79.88
47374;BME280;33123;50.118;10.272;2022-09-17T05:05:07;97111.28;;;10.57;80.07
47374;BME280;33123;50.118;10.272;2022-09-17T05:07:37;97110.97;;;10.48;80.54
47374;BME280;33123;50.118;10.272;2022-09-17T05:10:04;97116.00;;;10.60;80.02
47374;BME280;33123;50.118;10.272;2022-09-17T05:12:31;97119.47;;;10.61;80.27
47374;BME280;33123;50.118;10.272;2022-09-17T05:14:58;97122.59;;;10.52;80.75
47374;BME280;33123;50.118;10.272;2022-09-17T05:17:24;97119.97;;;10.57;80.28
47374;BME280;33123;50.118;10.272;2022-09-17T05:19:51;97123.94;;;10.65;80.64
47374;BME280;33123;50.118;10.272;2022-09-17T05:22:19;97125.78;;;10.65;80.21
47374;BME280;33123;50.118;10.272;2022-09-17T05:24:45;97131.06;;;10.70;79.99
47374;BME280;33123;50.118;10.272;2022-09-17T05:27:12;97121.84;;;10.72;79.92
47374;BME280;33123;50.118;10.272;2022-09-17T05:29:39;97128.97;;;10.67;80.11
47374;BME280;33123;50.118;10.272;2022-09-17T05:32:06;97125.53;;;10.71;79.92
47374;BME280;33123;50.118;10.272;2022-09-17T05:34:32;97130.00;;;10.76;80.55
47374;BME280;33123;50.118;10.272;2022-09-17T05:36:59;97130.28;;;10.74;80.08
47374;BME280;33123;50.118;10.272;2022-09-17T05:39:27;97135.84;;;10.78;80.38
47374;BME280;33123;50.118;10.272;2022-09-17T05:41:54;97130.03;;;10.81;80.23
47374;BME280;33123;50.118;10.272;2022-09-17T05:44:20;97108.91;;;10.71;80.48
47374;BME280;33123;50.118;10.272;2022-09-17T05:46:48;97135.31;;;10.91;80.24
47374;BME280;33123;50.118;10.272;2022-09-17T05:49:14;97137.69;;;10.98;80.02
47374;BME280;33123;50.118;10.272;2022-09-17T05:51:41;97138.50;;;11.03;79.72
47374;BME280;33123;50.118;10.272;2022-09-17T05:54:08;97138.00;;;11.06;79.71
47374;BME280;33123;50.118;10.272;2022-09-17T05:56:36;97142.22;;;11.13;79.64
47374;BME280;33123;50.118;10.272;2022-09-17T05:59:02;97152.75;;;11.13;79.31
47374;BME280;33123;50.118;10.272;2022-09-17T06:01:29;97146.94;;;11.16;79.27
47374;BME280;33123;50.118;10.272;2022-09-17T06:03:55;97146.94;;;11.21;79.28
47374;BME280;33123;50.118;10.272;2022-09-17T06:06:22;97151.19;;;11.22;79.13
47374;BME280;33123;50.118;10.272;2022-09-17T06:08:49;97150.94;;;11.28;78.88
47374;BME280;33123;50.118;10.272;2022-09-17T06:11:15;97146.16;;;11.25;78.94
47374;BME280;33123;50.118;10.272;2022-09-17T06:13:43;97152.78;;;11.33;78.53
47374;BME280;33123;50.118;10.272;2022-09-17T06:16:10;97153.31;;;11.30;78.57
47374;BME280;33123;50.118;10.272;2022-09-17T06:18:36;97155.44;;;11.33;78.62
47374;BME280;33123;50.118;10.272;2022-09-17T06:21:03;97153.81;;;11.37;78.08
47374;BME280;33123;50.118;10.272;2022-09-17T06:23:32;97159.09;;;11.47;77.89
47374;BME280;33123;50.118;10.272;2022-09-17T06:26:00;97155.69;;;11.52;77.93
47374;BME280;33123;50.118;10.272;2022-09-17T06:28:27;97159.09;;;11.57;78.02
47374;BME280;33123;50.118;10.272;2022-09-17T06:30:58;97163.84;;;11.66;78.04
47374;BME280;33123;50.118;10.272;2022-09-17T06:33:25;97167.53;;;11.70;77.54
47374;BME280;33123;50.118;10.272;2022-09-17T06:35:55;97165.41;;;11.77;77.66
47374;BME280;33123;50.118;10.272;2022-09-17T06:38:24;97170.19;;;11.85;77.43
47374;BME280;33123;50.118;10.272;2022-09-17T06:40:50;97172.03;;;11.89;77.57
47374;BME280;33123;50.118;10.272;2022-09-17T06:43:17;97170.47;;;11.88;77.06
47374;BME280;33123;50.118;10.272;2022-09-17T06:45:50;97170.69;;;11.92;75.48
47374;BME280;33123;50.118;10.272;2022-09-17T06:48:18;97175.44;;;12.00;76.12
47374;BME280;33123;50.118;10.272;2022-09-17T06:50:45;97165.13;;;12.04;75.80
47374;BME280;33123;50.118;10.272;2022-09-17T06:53:11;97175.69;;;12.04;75.48
47374;BME280;33123;50.118;10.272;2022-09-17T06:55:38;97184.16;;;12.01;76.42
47374;BME280;33123;50.118;10.272;2022-09-17T06:58:04;97179.38;;;12.08;76.00
47374;BME280;33123;50.118;10.272;2022-09-17T07:00:31;97173.59;;;12.11;75.80
47374;BME280;33123;50.118;10.272;2022-09-17T07:02:59;97164.88;;;12.05;74.85
47374;BME280;33123;50.118;10.272;2022-09-17T07:05:28;97170.66;;;12.07;74.06
47374;BME280;33123;50.118;10.272;2022-09-17T07:08:00;97172.75;;;12.15;74.60
47374;BME280;33123;50.118;10.272;2022-09-17T07:10:27;97181.97;;;12.28;75.06
47374;BME280;33123;50.118;10.272;2022-09-17T07:12:53;97180.09;;;12.39;75.40
47374;BME280;33123;50.118;10.272;2022-09-17T07:15:20;97173.19;;;12.48;75.01
47374;BME280;33123;50.118;10.272;2022-09-17T07:17:47;97168.41;;;12.55;73.55
47374;BME280;33123;50.118;10.272;2022-09-17T07:20:14;97183.16;;;12.66;73.60
47374;BME280;33123;50.118;10.272;2022-09-17T07:22:42;97182.38;;;12.66;72.37
47374;BME280;33123;50.118;10.272;2022-09-17T07:25:09;97187.88;;;12.75;73.16
47374;BME280;33123;50.118;10.272;2022-09-17T07:27:35;97185.94;;;12.90;72.96
47374;BME280;33123;50.118;10.272;2022-09-17T07:30:03;97190.38;;;13.05;72.49
47374;BME280;33123;50.118;10.272;2022-09-17T07:32:29;97186.59;;;13.22;70.73
47374;BME280;33123;50.118;10.272;2022-09-17T07:34:56;97194.69;;;13.35;70.24
47374;BME280;33123;50.118;10.272;2022-09-17T07:37:23;97196.97;;;13.47;68.25
47374;BME280;33123;50.118;10.272;2022-09-17T07:39:51;97195.28;;;13.61;69.42
47374;BME280;33123;50.118;10.272;2022-09-17T07:42:17;97204.19;;;13.70;69.54
47374;BME280;33123;50.118;10.272;2022-09-17T07:44:44;97209.03;;;13.63;68.47
47374;BME280;33123;50.118;10.272;2022-09-17T07:47:11;97207.75;;;13.61;69.07
47374;BME280;33123;50.118;10.272;2022-09-17T07:49:37;97207.53;;;13.52;66.81
47374;BME280;33123;50.118;10.272;2022-09-17T07:52:04;97215.41;;;13.62;68.76
47374;BME280;33123;50.118;10.272;2022-09-17T07:54:31;97217.44;;;13.70;68.71
47374;BME280;33123;50.118;10.272;2022-09-17T07:56:59;97217.41;;;13.76;68.66
47374;BME280;33123;50.118;10.272;2022-09-17T07:59:25;97226.84;;;13.87;67.47
47374;BME280;33123;50.118;10.272;2022-09-17T08:01:52;97229.03;;;13.80;66.17
47374;BME280;33123;50.118;10.272;2022-09-17T08:04:18;97229.69;;;13.95;67.78
47374;BME280;33123;50.118;10.272;2022-09-17T08:06:45;97231.00;;;13.98;66.59
47374;BME280;33123;50.118;10.272;2022-09-17T08:09:14;97225.34;;;14.05;67.46
47374;BME280;33123;50.118;10.272;2022-09-17T08:11:40;97230.34;;;14.11;66.88
47374;BME280;33123;50.118;10.272;2022-09-17T08:14:11;97232.69;;;14.42;66.34
47374;BME280;33123;50.118;10.272;2022-09-17T08:16:39;97229.94;;;14.76;66.08
47374;BME280;33123;50.118;10.272;2022-09-17T08:19:05;97227.63;;;15.12;64.77
47374;BME280;33123;50.118;10.272;2022-09-17T08:21:35;97232.94;;;15.50;63.72
47374;BME280;33123;50.118;10.272;2022-09-17T08:24:02;97239.97;;;15.78;62.12
47374;BME280;33123;50.118;10.272;2022-09-17T08:26:29;97236.91;;;16.18;62.25
47374;BME280;33123;50.118;10.272;2022-09-17T08:28:55;97235.66;;;16.56;59.62
47374;BME280;33123;50.118;10.272;2022-09-17T08:31:25;97239.00;;;17.03;58.67
47374;BME280;33123;50.118;10.272;2022-09-17T08:33:52;97247.03;;;17.39;55.62
47374;BME280;33123;50.118;10.272;2022-09-17T08:36:19;97251.63;;;17.70;54.18
47374;BME280;33123;50.118;10.272;2022-09-17T08:38:47;97238.84;;;17.94;54.25
47374;BME280;33123;50.118;10.272;2022-09-17T08:41:22;97253.44;;;18.28;55.86
47374;BME280;33123;50.118;10.272;2022-09-17T08:43:53;97245.84;;;18.44;51.98
47374;BME280;33123;50.118;10.272;2022-09-17T08:46:24;97255.78;;;18.61;50.74
47374;BME280;33123;50.118;10.272;2022-09-17T08:48:58;97249.72;;;18.69;51.91
47374;BME280;33123;50.118;10.272;2022-09-17T08:51:31;97243.16;;;18.84;51.73
47374;BME280;33123;50.118;10.272;2022-09-17T08:54:06;97258.78;;;18.99;50.07
47374;BME280;33123;50.118;10.272;2022-09-17T08:56:36;97256.41;;;19.06;50.49
47374;BME280;33123;50.118;10.272;2022-09-17T08:59:10;97251.53;;;18.99;50.89
47374;BME280;33123;50.118;10.272;2022-09-17T09:01:48;97253.84;;;18.84;50.28
47374;BME280;33123;50.118;10.272;2022-09-17T09:04:28;97259.72;;;18.63;49.45
47374;BME280;33123;50.118;10.272;2022-09-17T09:07:01;97262.72;;;18.31;49.08
47374;BME280;33123;50.118;10.272;2022-09-17T09:09:34;97267.78;;;17.87;50.38
47374;BME280;33123;50.118;10.272;2022-09-17T09:12:05;97266.03;;;17.47;51.27
47374;BME280;33123;50.118;10.272;2022-09-17T09:14:36;97264.94;;;17.11;52.70
47374;BME280;33123;50.118;10.272;2022-09-17T09:17:08;97267.72;;;16.79;54.13
47374;BME280;33123;50.118;10.272;2022-09-17T09:19:41;97263.53;;;16.59;54.08
47374;BME280;33123;50.118;10.272;2022-09-17T09:22:17;97242.44;;;16.35;53.90
47374;BME280;33123;50.118;10.272;2022-09-17T09:25:00;97265.00;;;16.37;56.04
47374;BME280;33123;50.118;10.272;2022-09-17T09:27:32;97237.69;;;16.18;56.59
47374;BME280;33123;50.118;10.272;2022-09-17T09:30:04;97261.06;;;16.49;59.23
47374;BME280;33123;50.118;10.272;2022-09-17T09:32:45;97254.19;;;17.03;56.66
47374;BME280;33123;50.118;10.272;2022-09-17T09:35:18;97262.06;;;18.03;53.55
47374;BME280;33123;50.118;10.272;2022-09-17T09:37:52;97250.13;;;18.93;51.11
47374;BME280;33123;50.118;10.272;2022-09-17T09:40:35;97255.84;;;19.78;49.56
47374;BME280;33123;50.118;10.272;2022-09-17T09:43:12;97250.81;;;19.94;44.20
47374;BME280;33123;50.118;10.272;2022-09-17T09:45:50;97257.19;;;20.19;46.06
47374;BME280;33123;50.118;10.272;2022-09-17T09:48:30;97259.19;;;20.40;44.15
47374;BME280;33123;50.118;10.272;2022-09-17T09:51:13;97258.88;;;20.88;45.47
47374;BME280;33123;50.118;10.272;2022-09-17T09:53:52;97250.72;;;21.35;42.87
47374;BME280;33123;50.118;10.272;2022-09-17T09:56:41;97247.44;;;22.04;42.92
47374;BME280;33123;50.118;10.272;2022-09-17T09:59:13;97259.13;;;22.21;40.30
47374;BME280;33123;50.118;10.272;2022-09-17T10:01:41;97250.84;;;22.13;37.50
47374;BME280;33123;50.118;10.272;2022-09-17T10:04:17;97248.81;;;21.77;39.76
47374;BME280;33123;50.118;10.272;2022-09-17T10:06:45;97241.50;;;21.15;40.08
47374;BME280;33123;50.118;10.272;2022-09-17T10:09:13;97242.47;;;20.60;40.88
47374;BME280;33123;50.118;10.272;2022-09-17T10:11:41;97252.78;;;20.15;42.87
47374;BME280;33123;50.118;10.272;2022-09-17T10:14:21;97243.28;;;19.62;43.18
47374;BME280;33123;50.118;10.272;2022-09-17T10:16:48;97238.50;;;19.07;45.43
47374;BME280;33123;50.118;10.272;2022-09-17T10:19:20;97240.38;;;18.49;47.13
47374;BME280;33123;50.118;10.272;2022-09-17T10:21:50;97249.34;;;18.22;49.98
47374;BME280;33123;50.118;10.272;2022-09-17T10:24:22;97245.97;;;17.85;49.09
47374;BME280;33123;50.118;10.272;2022-09-17T10:26:50;97243.50;;;17.53;52.54
47374;BME280;33123;50.118;10.272;2022-09-17T10:29:19;97223.78;;;17.18;50.18
47374;BME280;33123;50.118;10.272;2022-09-17T10:31:47;97241.81;;;17.34;49.50
47374;BME280;33123;50.118;10.272;2022-09-17T10:34:24;97247.59;;;17.36;52.03
47374;BME280;33123;50.118;10.272;2022-09-17T10:36:51;97243.63;;;17.48;51.06
47374;BME280;33123;50.118;10.272;2022-09-17T10:39:39;97236.53;;;17.65;50.53
47374;BME280;33123;50.118;10.272;2022-09-17T10:42:13;97235.13;;;18.35;48.96
47374;BME280;33123;50.118;10.272;2022-09-17T10:44:50;97224.72;;;19.22;47.39
47374;BME280;33123;50.118;10.272;2022-09-17T10:47:21;97223.16;;;19.73;43.62
47374;BME280;33123;50.118;10.272;2022-09-17T10:49:53;97190.06;;;19.95;44.46
47374;BME280;33123;50.118;10.272;2022-09-17T10:52:24;97224.72;;;20.38;43.72
47374;BME280;33123;50.118;10.272;2022-09-17T10:55:16;97222.75;;;20.94;42.99
47374;BME280;33123;50.118;10.272;2022-09-17T10:58:01;97231.22;;;21.68;42.04
47374;BME280;33123;50.118;10.272;2022-09-17T11:00:36;97223.00;;;22.18;41.50
47374;BME280;33123;50.118;10.272;2022-09-17T11:03:32;97216.78;;;22.38;37.81
47374;BME280;33123;50.118;10.272;2022-09-17T11:06:24;97216.16;;;22.21;37.91
47374;BME280;33123;50.118;10.272;2022-09-17T11:09:05;97196.09;;;21.60;39.74
47374;BME280;33123;50.118;10.272;2022-09-17T11:11:43;97217.97;;;21.21;39.62
47374;BME280;33123;50.118;10.272;2022-09-17T11:14:24;97218.88;;;20.83;39.69
47374;BME280;33123;50.118;10.272;2022-09-17T11:17:01;97209.25;;;20.52;41.12
47374;BME280;33123;50.118;10.272;2022-09-17T11:19:37;97222.03;;;20.76;40.93
47374;BME280;33123;50.118;10.272;2022-09-17T11:25:40;97241.38;;;20.82;44.15
47374;BME280;33123;50.118;10.272;2022-09-17T11:28:19;97258.91;;;20.24;45.08
47374;BME280;33123;50.118;10.272;2022-09-17T11:30:56;97260.84;;;19.19;46.96
47374;BME280;33123;50.118;10.272;2022-09-17T11:33:46;97262.88;;;18.34;48.79
47374;BME280;33123;50.118;10.272;2022-09-17T11:36:22;97207.97;;;17.21;50.86
47374;BME280;33123;50.118;10.272;2022-09-17T11:38:53;97239.72;;;16.81;53.37
47374;BME280;33123;50.118;10.272;2022-09-17T11:41:27;97236.25;;;16.53;58.45
47374;BME280;33123;50.118;10.272;2022-09-17T11:44:01;97228.66;;;16.47;59.26
47374;BME280;33123;50.118;10.272;2022-09-17T11:46:36;97224.13;;;16.47;59.91
47374;BME280;33123;50.118;10.272;2022-09-17T11:49:10;97221.16;;;16.49;59.61
47374;BME280;33123;50.118;10.272;2022-09-17T11:51:42;97207.84;;;16.49;61.12
47374;BME280;33123;50.118;10.272;2022-09-17T11:54:19;97217.44;;;16.50;59.75
47374;BME280;33123;50.118;10.272;2022-09-17T11:56:51;97217.25;;;16.32;59.45
47374;BME280;33123;50.118;10.272;2022-09-17T11:59:22;97218.13;;;16.42;61.81
47374;BME280;33123;50.118;10.272;2022-09-17T12:01:52;97217.53;;;16.45;62.96
47374;BME280;33123;50.118;10.272;2022-09-17T12:04:40;97220.88;;;16.50;62.54
47374;BME280;33123;50.118;10.272;2022-09-17T12:07:16;97217.75;;;16.76;66.05
47374;BME280;33123;50.118;10.272;2022-09-17T12:09:50;97217.59;;;17.08;62.43
47374;BME280;33123;50.118;10.272;2022-09-17T12:12:22;97213.84;;;17.46;61.53
47374;BME280;33123;50.118;10.272;2022-09-17T12:14:52;97204.22;;;17.81;60.78
47374;BME280;33123;50.118;10.272;2022-09-17T12:17:22;97204.28;;;17.89;58.12
47374;BME280;33123;50.118;10.272;2022-09-17T12:19:53;97200.88;;;17.98;55.75
47374;BME280;33123;50.118;10.272;2022-09-17T12:22:23;97199.38;;;18.14;56.51
47374;BME280;33123;50.118;10.272;2022-09-17T12:24:52;97191.47;;;18.31;57.82
47374;BME280;33123;50.118;10.272;2022-09-17T12:27:29;97188.25;;;18.52;51.34
47374;BME280;33123;50.118;10.272;2022-09-17T12:30:10;97191.59;;;18.66;54.48
47374;BME280;33123;50.118;10.272;2022-09-17T12:32:59;97185.50;;;18.74;54.09
47374;BME280;33123;50.118;10.272;2022-09-17T12:35:45;97179.69;;;18.72;53.87
47374;BME280;33123;50.118;10.272;2022-09-17T12:38:26;97176.31;;;18.49;51.72
47374;BME280;33123;50.118;10.272;2022-09-17T12:41:00;97171.91;;;18.44;55.28
47374;BME280;33123;50.118;10.272;2022-09-17T12:43:44;97170.56;;;18.25;53.90
47374;BME280;33123;50.118;10.272;2022-09-17T12:46:25;97162.38;;;18.21;51.44
47374;BME280;33123;50.118;10.272;2022-09-17T12:49:18;97166.88;;;18.03;52.98
47374;BME280;33123;50.118;10.272;2022-09-17T12:51:55;97160.91;;;17.75;56.35
47374;BME280;33123;50.118;10.272;2022-09-17T12:54:48;97164.19;;;17.94;59.35
47374;BME280;33123;50.118;10.272;2022-09-17T12:57:29;97149.34;;;18.11;57.83
47374;BME280;33123;50.118;10.272;2022-09-17T13:00:03;97154.94;;;18.40;57.20
47374;BME280;33123;50.118;10.272;2022-09-17T13:02:35;97157.94;;;18.47;52.92
47374;BME280;33123;50.118;10.272;2022-09-17T13:05:25;97127.56;;;18.26;49.74
47374;BME280;33123;50.118;10.272;2022-09-17T13:08:20;97150.97;;;18.29;49.59
47374;BME280;33123;50.118;10.272;2022-09-17T13:11:07;97150.59;;;18.13;50.10
47374;BME280;33123;50.118;10.272;2022-09-17T13:13:42;97156.19;;;17.94;49.46
47374;BME280;33123;50.118;10.272;2022-09-17T13:16:17;97144.59;;;17.99;49.03
47374;BME280;33123;50.118;10.272;2022-09-17T13:18:54;97139.28;;;18.08;51.70
47374;BME280;33123;50.118;10.272;2022-09-17T13:21:30;97142.66;;;18.22;52.17
47374;BME280;33123;50.118;10.272;2022-09-17T13:23:58;97138.31;;;18.43;48.62
47374;BME280;33123;50.118;10.272;2022-09-17T13:26:33;97137.72;;;18.64;45.54